createdAt,value
2019-04-03T00:01:20.007Z,51.00
2019-04-03T00:06:23.686Z,50.33
2019-04-03T00:11:27.419Z,50.93
2019-04-03T00:16:31.016Z,49.73
2019-04-03T00:21:34.593Z,49.73
2019-04-03T00:26:38.334Z,50.90
2019-04-03T00:31:41.846Z,50.53
2019-04-03T00:36:45.516Z,50.17
2019-04-03T00:41:49.220Z,51.17
2019-04-03T00:46:53.816Z,51.27
2019-04-03T00:51:58.170Z,51.40
2019-04-03T00:57:01.884Z,50.80
2019-04-03T01:02:05.486Z,50.87
2019-04-03T01:07:09.157Z,50.03
2019-04-03T01:12:12.795Z,49.93
2019-04-03T01:17:16.375Z,50.03
2019-04-03T01:22:20.014Z,50.97
2019-04-03T01:27:23.661Z,50.70
2019-04-03T01:32:27.242Z,50.23
2019-04-03T01:37:30.846Z,50.97
2019-04-03T01:42:34.403Z,51.07
2019-04-03T01:47:38.058Z,50.53
2019-04-03T01:52:41.652Z,50.50
2019-04-03T01:57:45.257Z,50.73
2019-04-03T02:02:48.979Z,50.87
2019-04-03T02:07:52.669Z,50.30
2019-04-03T02:12:56.346Z,50.50
2019-04-03T02:17:59.988Z,49.97
2019-04-03T02:23:03.663Z,50.87
2019-04-03T02:28:07.240Z,49.80
2019-04-03T02:33:10.839Z,50.13
2019-04-03T02:38:14.804Z,50.00
2019-04-03T02:43:18.730Z,50.03
2019-04-03T02:48:22.345Z,50.17
2019-04-03T02:53:27.520Z,50.47
2019-04-03T02:58:31.495Z,49.50
2019-04-03T03:03:35.074Z,49.30
2019-04-03T03:08:41.618Z,49.30
2019-04-03T03:13:45.003Z,50.03
2019-04-03T03:18:49.136Z,49.43
2019-04-03T03:23:55.164Z,49.83
2019-04-03T03:29:14.238Z,48.73
2019-04-03T03:34:05.892Z,48.60
2019-04-03T03:39:10.997Z,49.00
2019-04-03T03:44:16.405Z,47.97
2019-04-03T03:49:20.627Z,48.10
2019-04-03T03:54:25.677Z,48.93
2019-04-03T03:59:29.792Z,48.37
2019-04-03T04:04:33.761Z,48.27
2019-04-03T04:09:37.975Z,52.10
2019-04-03T04:14:41.960Z,48.73
2019-04-03T04:19:46.140Z,49.13
2019-04-03T04:24:49.736Z,49.85
2019-04-03T04:29:54.980Z,49.13
2019-04-03T04:34:58.640Z,48.53
2019-04-03T04:40:02.283Z,49.97
2019-04-03T04:45:07.196Z,50.97
2019-04-03T04:50:11.808Z,48.07
2019-04-03T04:55:15.443Z,48.77
2019-04-03T05:00:19.162Z,49.83
2019-04-03T05:05:22.751Z,49.40
2019-04-03T05:10:26.782Z,49.90
2019-04-03T05:15:30.537Z,49.30
2019-04-03T05:20:34.526Z,49.42
2019-04-03T05:25:38.176Z,50.57
2019-04-03T05:30:41.765Z,49.88
2019-04-03T05:35:46.284Z,48.93
2019-04-03T05:40:50.596Z,48.80
2019-04-03T05:45:54.172Z,48.67
2019-04-03T05:50:58.783Z,48.93
2019-04-03T05:56:02.360Z,47.20
2019-04-03T06:01:06.983Z,46.42
2019-04-03T06:06:10.924Z,46.03
2019-04-03T06:11:14.489Z,47.40
2019-04-03T06:16:18.089Z,47.80
2019-04-03T06:21:21.649Z,47.50
2019-04-03T06:26:25.364Z,48.27
2019-04-03T06:31:29.048Z,47.73
2019-04-03T06:36:32.717Z,48.33
2019-04-03T06:41:36.395Z,47.33
2019-04-03T06:46:40.116Z,49.80
2019-04-03T06:51:43.728Z,47.70
2019-04-03T06:56:47.332Z,49.07
2019-04-03T07:01:52.849Z,47.77
2019-04-03T07:06:56.657Z,51.37
2019-04-03T07:12:00.369Z,50.77
2019-04-03T07:17:05.901Z,50.87
2019-04-03T07:22:09.235Z,51.07
2019-04-03T07:27:14.886Z,52.17
2019-04-03T07:32:19.279Z,52.25
2019-04-03T07:37:22.908Z,52.35
2019-04-03T07:42:26.678Z,52.77
2019-04-03T07:47:30.380Z,52.95
2019-04-03T07:52:33.992Z,52.08
2019-04-03T07:57:40.427Z,52.73
2019-04-03T08:02:47.946Z,52.67
2019-04-03T08:07:48.448Z,52.95
2019-04-03T08:12:52.039Z,53.28
2019-04-03T08:17:57.139Z,53.52
2019-04-03T08:23:00.858Z,54.15
2019-04-03T08:28:04.678Z,54.23
2019-04-03T08:33:15.914Z,52.67
2019-04-03T08:38:14.172Z,53.13
2019-04-03T08:43:17.776Z,53.63
2019-04-03T08:48:21.432Z,54.13
2019-04-03T08:53:25.017Z,54.53
2019-04-03T08:58:28.822Z,54.45
2019-04-03T09:03:32.418Z,53.48
2019-04-03T09:08:36.063Z,54.13
2019-04-03T09:13:39.907Z,53.95
2019-04-03T09:18:43.678Z,52.88
2019-04-03T09:23:47.784Z,53.38
2019-04-03T09:28:51.505Z,53.73
2019-04-03T09:33:56.972Z,54.67
2019-04-03T09:39:00.368Z,52.58
2019-04-03T09:44:04.004Z,54.30
2019-04-03T09:49:08.349Z,53.58
2019-04-03T09:54:11.992Z,54.85
2019-04-03T09:59:16.350Z,53.87
2019-04-03T10:04:20.960Z,54.30
2019-04-03T10:09:25.213Z,54.65
2019-04-03T10:14:29.063Z,55.12
2019-04-03T10:19:32.764Z,55.00
2019-04-03T10:24:36.520Z,54.73
2019-04-03T10:29:40.156Z,55.48
2019-04-03T10:34:43.731Z,54.95
2019-04-03T10:39:47.321Z,55.23
2019-04-03T10:44:51.286Z,54.93
2019-04-03T10:49:55.317Z,55.48
2019-04-03T10:54:59.013Z,55.15
2019-04-03T11:00:02.692Z,55.48
2019-04-03T11:05:09.436Z,55.67
2019-04-03T11:15:18.178Z,55.55
2019-04-03T11:20:22.020Z,55.47
2019-04-03T11:25:25.926Z,56.40
2019-04-03T11:30:29.687Z,55.62
2019-04-03T11:35:33.333Z,54.73
2019-04-03T11:40:37.369Z,55.28
2019-04-03T11:45:41.001Z,55.25
2019-04-03T11:50:44.787Z,54.38
2019-04-03T11:55:48.842Z,55.58
2019-04-03T12:00:54.245Z,54.03
2019-04-03T12:05:58.058Z,55.63
2019-04-03T12:11:01.913Z,54.10
2019-04-03T12:16:05.598Z,54.53
2019-04-03T12:21:11.686Z,55.17
2019-04-03T12:26:14.484Z,55.38
2019-04-03T12:31:18.163Z,54.55
2019-04-03T12:36:21.783Z,54.05
2019-04-03T12:41:27.179Z,54.38
2019-04-03T12:46:37.342Z,53.42
2019-04-03T12:51:41.202Z,54.35
2019-04-03T12:56:44.952Z,53.33
2019-04-03T13:01:49.736Z,53.63
2019-04-03T13:06:53.760Z,53.48
2019-04-03T13:11:57.368Z,54.18
2019-04-03T13:17:01.089Z,57.73
2019-04-03T13:22:04.792Z,54.30
2019-04-03T13:27:08.765Z,53.68
2019-04-03T13:32:12.651Z,54.23
2019-04-03T13:37:16.534Z,55.20
2019-04-03T13:42:20.275Z,53.63
2019-04-03T13:47:23.884Z,54.55
2019-04-03T13:52:38.721Z,53.73
2019-04-03T13:57:32.775Z,54.60
2019-04-03T14:02:36.517Z,54.55
2019-04-03T14:07:41.704Z,55.35
2019-04-03T14:12:45.853Z,55.03
2019-04-03T14:17:56.490Z,55.00
2019-04-03T14:22:54.633Z,54.15
2019-04-03T14:28:01.411Z,54.13
2019-04-03T14:33:03.731Z,53.63
2019-04-03T14:38:07.804Z,54.55
2019-04-03T14:43:11.405Z,53.55
2019-04-03T14:48:15.034Z,54.18
2019-04-03T14:53:20.241Z,53.33
2019-04-03T14:58:26.906Z,55.08
2019-04-03T15:03:29.423Z,55.20
2019-04-03T15:08:33.072Z,57.58
2019-04-03T15:13:36.733Z,56.33
2019-04-03T15:18:42.140Z,53.75
2019-04-03T15:23:45.805Z,54.18
2019-04-03T15:28:49.709Z,52.38
2019-04-03T15:33:55.751Z,55.83
2019-04-03T15:38:59.707Z,55.63
2019-04-03T15:44:03.761Z,56.55
2019-04-03T15:49:07.513Z,52.53
2019-04-03T15:54:11.292Z,53.33
2019-04-03T15:59:15.330Z,53.02
2019-04-03T16:04:19.410Z,53.58
2019-04-03T16:09:23.501Z,54.03
2019-04-03T16:14:28.526Z,54.88
2019-04-03T16:19:33.015Z,54.00
2019-04-03T16:24:37.190Z,52.90
2019-04-03T16:29:41.358Z,53.15
2019-04-03T16:34:45.448Z,53.83
2019-04-03T16:39:49.170Z,53.30
2019-04-03T16:44:53.180Z,57.80
2019-04-03T16:49:57.172Z,54.18
2019-04-03T16:55:00.983Z,53.73
2019-04-03T17:00:08.888Z,54.05
2019-04-03T17:05:12.863Z,53.05
2019-04-03T17:10:16.904Z,53.58
2019-04-03T17:15:20.619Z,52.50
2019-04-03T17:20:24.818Z,53.60
2019-04-03T17:25:43.538Z,54.00
2019-04-03T17:30:34.177Z,54.40
2019-04-03T17:35:37.892Z,53.55
2019-04-03T17:40:42.044Z,53.48
2019-04-03T17:45:46.439Z,52.98
2019-04-03T17:50:50.571Z,53.53
2019-04-03T17:55:54.146Z,53.58
2019-04-03T18:00:57.899Z,53.08
2019-04-03T18:06:01.571Z,54.53
2019-04-03T18:11:05.284Z,54.48
2019-04-03T18:16:09.016Z,53.48
2019-04-03T18:21:13.126Z,52.60
2019-04-03T18:26:16.874Z,53.85
2019-04-03T18:31:20.531Z,54.18
2019-04-03T18:36:27.667Z,54.27
2019-04-03T18:41:29.580Z,54.33
2019-04-03T18:46:36.331Z,53.30
2019-04-03T18:51:38.577Z,54.23
2019-04-03T18:56:42.204Z,55.43
2019-04-03T19:01:45.997Z,54.30
2019-04-03T19:06:49.732Z,54.80
2019-04-03T19:11:53.471Z,54.60
2019-04-03T19:16:57.204Z,52.17
2019-04-03T19:22:00.907Z,54.00
2019-04-03T19:27:04.621Z,53.97
2019-04-03T19:32:08.297Z,54.17
2019-04-03T19:37:13.241Z,54.33
2019-04-03T19:42:18.249Z,54.40
2019-04-03T19:47:22.796Z,53.37
2019-04-03T19:52:27.353Z,53.30
2019-04-03T19:57:30.962Z,53.47
2019-04-03T20:02:37.593Z,52.53
2019-04-03T20:07:39.980Z,53.33
2019-04-03T20:12:43.846Z,52.67
2019-04-03T20:17:47.490Z,53.83
2019-04-03T20:22:51.046Z,52.50
2019-04-03T20:27:56.811Z,52.27
2019-04-03T20:33:00.031Z,52.43
2019-04-03T20:38:05.448Z,52.13
2019-04-03T20:43:11.171Z,52.37
2019-04-03T20:48:14.452Z,51.27
2019-04-03T20:53:18.028Z,52.30
2019-04-03T20:58:21.712Z,52.30
2019-04-03T21:03:25.346Z,51.70
2019-04-03T21:08:31.427Z,51.57
2019-04-03T21:13:34.236Z,51.13
2019-04-03T21:18:37.842Z,51.20
2019-04-03T21:23:41.429Z,51.13
2019-04-03T21:28:45.417Z,51.03
2019-04-03T21:33:49.076Z,51.33
2019-04-03T21:38:52.685Z,51.83
2019-04-03T21:43:59.547Z,51.60
2019-04-03T21:49:01.750Z,50.17
2019-04-03T21:54:05.476Z,51.23
2019-04-03T21:59:10.926Z,51.37
2019-04-03T22:04:14.439Z,51.70
2019-04-03T22:09:18.112Z,50.70
2019-04-03T22:14:21.764Z,50.47
2019-04-03T22:19:27.275Z,50.63
2019-04-03T22:24:30.660Z,49.60
2019-04-03T22:29:34.250Z,49.43
2019-04-03T22:34:37.977Z,48.80
2019-04-03T22:39:41.568Z,49.73
2019-04-03T22:44:47.724Z,48.20
2019-04-03T22:49:50.441Z,49.40
2019-04-03T22:54:54.011Z,49.73
2019-04-03T22:59:57.700Z,49.57
2019-04-03T23:05:01.268Z,49.63
2019-04-03T23:10:08.560Z,49.05
2019-04-03T23:20:15.063Z,48.70
2019-04-03T23:25:18.784Z,49.47
2019-04-03T23:30:23.521Z,49.00
2019-04-03T23:35:27.232Z,48.47
2019-04-03T23:40:34.480Z,48.80
2019-04-03T23:45:37.240Z,48.77
2019-04-03T23:50:41.637Z,48.52
2019-04-03T23:55:45.285Z,48.20
